Terminal Aerodrome Forecast
Issued by NWS

Home | Current Version | Previous Version | Text Only | Print | Product List | Glossary Off
Versions: 1 2 3 4 5 6 7 8 9 10 11 12 13 14 15 16 17

000
FTUS43 KABR 262340
TAFPIR
TAF
KPIR 262340Z 2700/2724 10010KT P6SM BKN200
     FM270700 09010KT P6SM VCSH OVC080
     FM271500 06010KT P6SM -SHRA OVC050=

USA.gov is the U.S. government's official web portal to all federal, state and local government web resources and services.